createdAt,value
2018-09-03T00:02:21.184Z,20.87
2018-09-03T00:04:50.635Z,20.87
2018-09-03T00:07:20.037Z,20.86
2018-09-03T00:09:49.439Z,20.87
2018-09-03T00:12:18.855Z,20.87
2018-09-03T00:14:48.313Z,20.88
2018-09-03T00:17:17.768Z,20.86
2018-09-03T00:19:47.203Z,20.86
2018-09-03T00:22:16.617Z,20.86
2018-09-03T00:24:46.072Z,20.86
2018-09-03T00:27:15.648Z,20.84
2018-09-03T00:29:45.137Z,20.83
2018-09-03T00:32:19.644Z,20.80
2018-09-03T00:34:54.448Z,20.78
2018-09-03T00:37:35.932Z,20.75
2018-09-03T00:40:10.673Z,20.75
2018-09-03T00:42:45.353Z,20.75
2018-09-03T00:45:20.068Z,20.75
2018-09-03T00:47:49.467Z,20.73
2018-09-03T00:50:18.864Z,20.73
2018-09-03T00:52:48.533Z,20.72
2018-09-03T00:55:17.975Z,20.71
2018-09-03T00:57:47.403Z,20.70
2018-09-03T01:00:16.844Z,20.68
2018-09-03T01:02:46.276Z,20.66
2018-09-03T01:05:15.679Z,20.63
2018-09-03T01:07:45.116Z,20.63
2018-09-03T01:10:14.576Z,20.62
2018-09-03T01:12:44.014Z,20.60
2018-09-03T01:15:13.757Z,20.58
2018-09-03T01:17:43.464Z,20.58
2018-09-03T01:20:13.194Z,20.58
2018-09-03T01:22:42.965Z,20.58
2018-09-03T01:25:12.689Z,20.57
2018-09-03T01:27:42.405Z,20.57
2018-09-03T01:30:12.110Z,20.56
2018-09-03T01:32:41.815Z,20.55
2018-09-03T01:35:11.608Z,20.54
2018-09-03T01:37:41.281Z,20.56
2018-09-03T01:40:11.077Z,20.55
2018-09-03T01:42:40.955Z,20.41
2018-09-03T01:45:10.794Z,20.09
2018-09-03T01:47:40.575Z,19.74
2018-09-03T01:50:10.261Z,19.41
2018-09-03T01:52:39.961Z,19.12
2018-09-03T01:55:09.737Z,18.87
2018-09-03T01:57:39.482Z,18.71
2018-09-03T02:00:09.222Z,18.57
2018-09-03T02:02:38.990Z,18.49
2018-09-03T02:05:08.790Z,18.45
2018-09-03T02:07:38.521Z,18.40
2018-09-03T02:10:08.241Z,18.38
2018-09-03T02:12:37.909Z,18.38
2018-09-03T02:15:08.000Z,18.39
2018-09-03T02:17:37.747Z,18.43
2018-09-03T02:20:07.934Z,18.44
2018-09-03T02:22:37.645Z,18.49
2018-09-03T02:25:07.735Z,18.52
2018-09-03T02:27:37.451Z,18.56
2018-09-03T02:30:07.346Z,18.61
2018-09-03T02:32:37.059Z,18.69
2018-09-03T02:35:06.877Z,18.74
2018-09-03T02:37:36.598Z,18.76
2018-09-03T02:40:06.474Z,18.84
2018-09-03T02:42:36.328Z,18.86
2018-09-03T02:45:07.714Z,18.90
2018-09-03T02:47:37.413Z,18.93
2018-09-03T02:50:07.909Z,18.96
2018-09-03T02:52:37.873Z,19.00
2018-09-03T02:55:08.545Z,19.03
2018-09-03T02:57:38.275Z,19.05
2018-09-03T03:00:08.129Z,19.04
2018-09-03T03:02:37.829Z,19.04
2018-09-03T03:05:07.690Z,19.02
2018-09-03T03:07:37.424Z,19.01
2018-09-03T03:10:07.340Z,19.00
2018-09-03T03:12:37.043Z,19.02
2018-09-03T03:15:07.265Z,19.03
2018-09-03T03:17:37.051Z,19.02
2018-09-03T03:20:07.101Z,19.01
2018-09-03T03:22:36.853Z,19.00
2018-09-03T03:25:06.916Z,19.00
2018-09-03T03:27:36.603Z,19.02
2018-09-03T03:30:08.292Z,19.00
2018-09-03T03:32:38.046Z,19.01
2018-09-03T03:35:09.960Z,19.01
2018-09-03T03:37:41.537Z,19.03
2018-09-03T03:40:11.301Z,19.05
2018-09-03T03:42:41.911Z,19.04
2018-09-03T03:45:11.767Z,19.04
2018-09-03T03:47:41.866Z,19.02
2018-09-03T03:50:11.617Z,18.99
2018-09-03T03:52:41.410Z,18.93
2018-09-03T03:55:11.180Z,18.87
2018-09-03T03:57:40.937Z,18.84
2018-09-03T04:00:10.649Z,18.81
2018-09-03T04:02:40.375Z,18.78
2018-09-03T04:05:10.085Z,18.76
2018-09-03T04:07:39.811Z,18.70
2018-09-03T04:10:09.519Z,18.66
2018-09-03T04:12:41.415Z,18.63
2018-09-03T04:15:11.189Z,18.62
2018-09-03T04:17:40.933Z,18.62
2018-09-03T04:20:10.646Z,18.62
2018-09-03T04:22:40.371Z,18.62
2018-09-03T04:25:10.113Z,18.62
2018-09-03T04:27:39.826Z,18.62
2018-09-03T04:30:09.549Z,18.60
2018-09-03T04:32:39.243Z,18.59
2018-09-03T04:35:09.562Z,18.59
2018-09-03T04:37:39.393Z,18.61
2018-09-03T04:40:09.173Z,18.63
2018-09-03T04:42:38.950Z,18.66
2018-09-03T04:45:08.736Z,18.69
2018-09-03T04:47:38.677Z,18.71
2018-09-03T04:50:08.495Z,18.76
2018-09-03T04:52:38.229Z,18.78
2018-09-03T04:55:08.063Z,18.83
2018-09-03T04:57:40.690Z,18.98
2018-09-03T05:00:10.597Z,19.36
2018-09-03T05:02:40.373Z,19.78
2018-09-03T05:05:10.106Z,20.10
2018-09-03T05:07:39.846Z,20.41
2018-09-03T05:10:09.557Z,20.64
2018-09-03T05:12:39.933Z,20.70
2018-09-03T05:15:09.637Z,20.83
2018-09-03T05:17:39.392Z,21.02
2018-09-03T05:20:09.133Z,21.23
2018-09-03T05:22:38.877Z,21.50
2018-09-03T05:25:08.858Z,21.91
2018-09-03T05:27:38.581Z,22.29
2018-09-03T05:30:09.206Z,22.61
2018-09-03T05:32:39.366Z,22.99
2018-09-03T05:35:09.184Z,23.23
2018-09-03T05:37:39.146Z,23.24
2018-09-03T05:40:08.934Z,23.23
2018-09-03T05:42:38.819Z,23.46
2018-09-03T05:45:08.681Z,23.59
2018-09-03T05:47:38.521Z,23.67
2018-09-03T05:50:08.249Z,23.77
2018-09-03T05:52:38.273Z,23.93
2018-09-03T05:55:08.073Z,24.16
2018-09-03T05:57:37.816Z,24.27
2018-09-03T06:00:08.206Z,24.22
2018-09-03T06:02:37.982Z,24.10
2018-09-03T06:05:07.949Z,24.05
2018-09-03T06:07:39.113Z,24.27
2018-09-03T06:10:08.905Z,24.53
2018-09-03T06:12:39.623Z,24.60
2018-09-03T06:15:09.452Z,24.57
2018-09-03T06:17:39.142Z,24.86
2018-09-03T06:20:08.943Z,25.05
2018-09-03T06:22:38.666Z,25.13
2018-09-03T06:25:08.402Z,25.04
2018-09-03T06:27:38.086Z,25.09
2018-09-03T06:30:07.901Z,25.00
2018-09-03T06:32:37.568Z,25.09
2018-09-03T06:35:07.496Z,25.33
2018-09-03T06:37:37.386Z,25.68
2018-09-03T06:40:07.305Z,25.76
2018-09-03T06:42:37.101Z,25.75
2018-09-03T06:45:07.425Z,25.64
2018-09-03T06:47:37.187Z,25.59
2018-09-03T06:50:07.064Z,25.72
2018-09-03T06:52:36.815Z,25.74
2018-09-03T06:55:07.003Z,25.87
2018-09-03T06:57:36.705Z,25.98
2018-09-03T07:00:07.793Z,25.89
2018-09-03T07:02:37.536Z,25.84
2018-09-03T07:05:07.298Z,25.97
2018-09-03T07:07:37.174Z,25.84
2018-09-03T07:10:08.455Z,25.56
2018-09-03T07:12:38.505Z,25.25
2018-09-03T07:15:08.521Z,25.04
2018-09-03T07:17:38.349Z,25.06
2018-09-03T07:20:08.285Z,25.07
2018-09-03T07:22:38.029Z,25.07
2018-09-03T07:25:08.336Z,25.27
2018-09-03T07:27:38.395Z,25.52
2018-09-03T07:30:08.245Z,25.74
2018-09-03T07:32:38.081Z,25.93
2018-09-03T07:35:14.457Z,26.09
2018-09-03T07:37:44.156Z,26.48
2018-09-03T07:40:13.950Z,26.81
2018-09-03T07:42:43.749Z,26.87
2018-09-03T07:45:13.454Z,26.55
2018-09-03T07:47:43.225Z,26.19
2018-09-03T07:50:12.937Z,25.94
2018-09-03T07:52:42.632Z,25.83
2018-09-03T07:55:12.478Z,25.86
2018-09-03T07:57:42.197Z,25.78
2018-09-03T08:00:12.001Z,25.82
2018-09-03T08:02:41.712Z,25.91
2018-09-03T08:05:11.438Z,26.16
2018-09-03T08:07:41.118Z,26.59
2018-09-03T08:10:11.401Z,26.93
2018-09-03T08:12:41.562Z,27.07
2018-09-03T08:15:11.302Z,27.09
2018-09-03T08:17:41.037Z,27.16
2018-09-03T08:20:11.008Z,27.42
2018-09-03T08:22:40.652Z,27.78
2018-09-03T08:25:10.397Z,28.20
2018-09-03T08:27:40.380Z,28.96
2018-09-03T08:30:11.138Z,29.49
2018-09-03T08:32:40.780Z,29.71
2018-09-03T08:35:10.850Z,29.83
2018-09-03T08:37:40.535Z,30.22
2018-09-03T08:40:10.287Z,30.61
2018-09-03T08:42:40.105Z,31.36
2018-09-03T08:45:09.818Z,31.73
2018-09-03T08:47:39.553Z,32.32
2018-09-03T08:50:09.326Z,32.98
2018-09-03T08:52:39.029Z,33.09
2018-09-03T08:55:08.745Z,33.46
2018-09-03T08:57:38.458Z,33.69
2018-09-03T09:00:08.470Z,33.38
2018-09-03T09:02:38.267Z,32.96
2018-09-03T09:05:08.180Z,32.98
2018-09-03T09:07:38.045Z,32.77
2018-09-03T09:10:07.834Z,32.80
2018-09-03T09:12:37.679Z,32.79
2018-09-03T09:15:07.596Z,33.01
2018-09-03T09:17:37.341Z,33.36
2018-09-03T09:20:07.068Z,33.72
2018-09-03T09:22:36.840Z,33.79
2018-09-03T09:25:07.043Z,34.34
2018-09-03T09:27:36.855Z,34.64
2018-09-03T09:30:06.846Z,35.22
2018-09-03T09:32:36.602Z,35.73
2018-09-03T09:35:06.413Z,35.91
2018-09-03T09:37:36.084Z,35.64
2018-09-03T09:40:05.832Z,35.50
2018-09-03T09:42:35.785Z,35.46
2018-09-03T09:45:05.472Z,35.51
2018-09-03T09:47:35.160Z,35.92
2018-09-03T09:50:05.075Z,36.36
2018-09-03T09:52:35.081Z,36.48
2018-09-03T09:55:05.224Z,36.55
2018-09-03T09:57:35.152Z,36.80
2018-09-03T10:00:04.918Z,36.91
2018-09-03T10:02:34.627Z,36.85
2018-09-03T10:05:04.409Z,36.64
2018-09-03T10:07:34.126Z,36.67
2018-09-03T10:10:03.906Z,36.98
2018-09-03T10:12:34.144Z,37.21
2018-09-03T10:15:03.840Z,37.02
2018-09-03T10:17:33.545Z,37.11
2018-09-03T10:20:03.332Z,36.87
2018-09-03T10:22:33.021Z,36.49
2018-09-03T10:25:02.738Z,36.10
2018-09-03T10:27:32.469Z,35.54
2018-09-03T10:30:02.150Z,35.09
2018-09-03T10:32:32.350Z,34.72
2018-09-03T10:35:02.128Z,34.23
2018-09-03T10:37:31.811Z,33.86
2018-09-03T10:40:01.542Z,33.53
2018-09-03T10:42:31.332Z,33.37
2018-09-03T10:45:01.037Z,32.95
2018-09-03T10:47:30.815Z,32.77
2018-09-03T10:50:00.507Z,32.61
2018-09-03T10:52:30.275Z,32.48
2018-09-03T10:55:00.020Z,32.23
2018-09-03T10:57:29.945Z,32.04
2018-09-03T10:59:59.613Z,31.91
2018-09-03T11:02:29.342Z,31.83
2018-09-03T11:04:59.054Z,31.46
2018-09-03T11:07:28.793Z,31.12
2018-09-03T11:09:58.546Z,30.75
2018-09-03T11:12:28.305Z,30.32
2018-09-03T11:14:57.992Z,29.94
2018-09-03T11:17:27.674Z,29.54
2018-09-03T11:19:59.758Z,29.30
2018-09-03T11:22:29.626Z,29.02
2018-09-03T11:25:00.169Z,28.78
2018-09-03T11:27:29.900Z,28.64
2018-09-03T11:29:59.698Z,28.46
2018-09-03T11:32:29.438Z,28.35
2018-09-03T11:34:59.189Z,28.26
2018-09-03T11:37:28.886Z,28.18
2018-09-03T11:39:58.626Z,28.14
2018-09-03T11:42:28.351Z,28.15
2018-09-03T11:44:58.103Z,28.14
2018-09-03T11:47:27.816Z,28.20
2018-09-03T11:49:57.589Z,28.23
2018-09-03T11:52:27.338Z,28.24
2018-09-03T11:54:57.167Z,28.31
2018-09-03T11:57:27.047Z,28.34
2018-09-03T11:59:56.986Z,28.36
2018-09-03T12:02:26.721Z,28.48
2018-09-03T12:04:56.474Z,28.63
2018-09-03T12:07:26.224Z,28.69
2018-09-03T12:09:56.189Z,28.70
2018-09-03T12:12:25.873Z,28.65
2018-09-03T12:14:58.256Z,28.65
2018-09-03T12:17:27.942Z,28.73
2018-09-03T12:19:57.654Z,28.81
2018-09-03T12:22:27.560Z,28.80
2018-09-03T12:24:57.225Z,28.73
2018-09-03T12:27:27.129Z,28.63
2018-09-03T12:29:56.865Z,28.46
2018-09-03T12:32:26.562Z,28.36
2018-09-03T12:34:56.277Z,28.28
2018-09-03T12:37:26.229Z,28.26
2018-09-03T12:39:56.401Z,28.18
2018-09-03T12:42:26.125Z,28.13
2018-09-03T12:44:55.869Z,28.19
2018-09-03T12:47:25.614Z,28.26
2018-09-03T12:49:55.428Z,28.39
2018-09-03T12:52:25.141Z,28.41
2018-09-03T12:54:54.811Z,28.43
2018-09-03T12:57:24.562Z,28.36
2018-09-03T13:00:05.133Z,28.24
2018-09-03T13:02:24.189Z,28.21
2018-09-03T13:04:53.999Z,28.20
2018-09-03T13:07:23.721Z,28.19
2018-09-03T13:09:53.418Z,28.13
2018-09-03T13:12:23.157Z,28.10
2018-09-03T13:14:52.889Z,28.11
2018-09-03T13:17:22.577Z,28.22
2018-09-03T13:19:52.428Z,28.33
2018-09-03T13:22:22.210Z,28.40
2018-09-03T13:24:51.901Z,28.43
2018-09-03T13:27:21.653Z,28.47
2018-09-03T13:29:51.421Z,28.54
2018-09-03T13:32:21.131Z,28.59
2018-09-03T13:34:50.952Z,28.60
2018-09-03T13:37:20.914Z,28.57
2018-09-03T13:39:50.650Z,28.59
2018-09-03T13:42:20.406Z,28.60
2018-09-03T13:44:50.117Z,28.52
2018-09-03T13:47:19.838Z,28.56
2018-09-03T13:49:49.702Z,28.54
2018-09-03T13:52:19.413Z,28.47
2018-09-03T13:54:49.365Z,28.49
2018-09-03T13:57:19.065Z,28.49
2018-09-03T13:59:49.082Z,28.50
2018-09-03T14:02:18.891Z,28.48
2018-09-03T14:04:48.810Z,28.50
2018-09-03T14:07:18.620Z,28.51
2018-09-03T14:09:48.398Z,28.51
2018-09-03T14:12:18.162Z,28.51
2018-09-03T14:14:48.129Z,28.48
2018-09-03T14:17:18.088Z,28.48
2018-09-03T14:19:47.929Z,28.47
2018-09-03T14:22:17.699Z,28.46
2018-09-03T14:24:47.367Z,28.43
2018-09-03T14:27:17.189Z,28.41
2018-09-03T14:29:46.971Z,28.37
2018-09-03T14:32:16.718Z,28.33
2018-09-03T14:34:46.489Z,28.31
2018-09-03T14:37:16.233Z,28.24
2018-09-03T14:39:45.913Z,28.16
2018-09-03T14:42:15.714Z,28.16
2018-09-03T14:44:45.453Z,28.17
2018-09-03T14:47:15.194Z,28.17
2018-09-03T14:49:45.093Z,28.17
2018-09-03T14:52:14.952Z,28.15
2018-09-03T14:54:44.790Z,28.14
2018-09-03T14:57:14.684Z,28.19
2018-09-03T14:59:44.626Z,28.20
2018-09-03T15:02:14.654Z,28.19
2018-09-03T15:04:44.454Z,28.18
2018-09-03T15:07:14.233Z,28.19
2018-09-03T15:09:43.955Z,28.19
2018-09-03T15:12:13.826Z,28.22
2018-09-03T15:14:43.741Z,28.24
2018-09-03T15:17:13.450Z,28.22
2018-09-03T15:19:43.304Z,28.18
2018-09-03T15:22:13.090Z,28.11
2018-09-03T15:24:42.798Z,28.05
2018-09-03T15:27:12.556Z,28.03
2018-09-03T15:29:42.396Z,28.01
2018-09-03T15:32:12.189Z,27.98
2018-09-03T15:34:41.905Z,27.97
2018-09-03T15:37:11.670Z,27.94
2018-09-03T15:39:41.341Z,27.93
2018-09-03T15:42:11.306Z,27.94
2018-09-03T15:44:41.005Z,27.93
2018-09-03T15:47:10.738Z,27.89
2018-09-03T15:49:40.497Z,27.84
2018-09-03T15:52:10.270Z,27.81
2018-09-03T15:54:39.947Z,27.78
2018-09-03T15:57:09.694Z,27.75
2018-09-03T15:59:39.425Z,27.73
2018-09-03T16:02:09.153Z,27.71
2018-09-03T16:04:38.897Z,27.66
2018-09-03T16:07:08.679Z,27.63
2018-09-03T16:09:38.386Z,27.57
2018-09-03T16:12:08.482Z,27.54
2018-09-03T16:14:38.209Z,27.49
2018-09-03T16:17:07.909Z,27.45
2018-09-03T16:19:37.775Z,27.40
2018-09-03T16:22:07.994Z,27.35
2018-09-03T16:24:37.801Z,27.28
2018-09-03T16:27:07.716Z,27.23
2018-09-03T16:29:37.628Z,27.19
2018-09-03T16:32:07.562Z,27.14
2018-09-03T16:34:37.286Z,27.09
2018-09-03T16:37:07.133Z,27.06
2018-09-03T16:39:36.869Z,27.02
2018-09-03T16:42:08.679Z,26.98
2018-09-03T16:44:38.348Z,26.92
2018-09-03T16:47:08.565Z,26.87
2018-09-03T16:49:38.386Z,26.79
2018-09-03T16:52:08.464Z,26.73
2018-09-03T16:54:38.209Z,26.65
2018-09-03T16:57:08.022Z,26.59
2018-09-03T16:59:37.810Z,26.52
2018-09-03T17:02:08.013Z,26.46
2018-09-03T17:04:37.807Z,26.38
2018-09-03T17:07:07.889Z,26.31
2018-09-03T17:09:37.645Z,26.23
2018-09-03T17:12:07.730Z,26.14
2018-09-03T17:14:37.456Z,26.07
2018-09-03T17:17:08.031Z,25.99
2018-09-03T17:19:37.914Z,25.94
2018-09-03T17:22:07.772Z,25.86
2018-09-03T17:24:38.178Z,25.78
2018-09-03T17:27:08.127Z,25.72
2018-09-03T17:29:37.972Z,25.67
2018-09-03T17:32:07.802Z,25.62
2018-09-03T17:34:37.676Z,25.54
2018-09-03T17:37:07.468Z,25.45
2018-09-03T17:39:37.229Z,25.39
2018-09-03T17:42:07.005Z,25.29
2018-09-03T17:44:36.905Z,25.19
2018-09-03T17:47:07.036Z,25.12
2018-09-03T17:49:36.812Z,25.07
2018-09-03T17:52:06.836Z,25.00
2018-09-03T17:54:36.723Z,24.91
2018-09-03T17:57:06.450Z,24.82
2018-09-03T17:59:36.258Z,24.71
2018-09-03T18:02:06.115Z,24.65
2018-09-03T18:04:36.064Z,24.56
2018-09-03T18:07:05.880Z,24.49
2018-09-03T18:09:36.165Z,24.41
2018-09-03T18:12:06.300Z,24.33
2018-09-03T18:14:36.058Z,24.26
2018-09-03T18:17:06.065Z,24.19
2018-09-03T18:19:35.789Z,24.13
2018-09-03T18:22:05.510Z,24.06
2018-09-03T18:24:35.265Z,24.01
2018-09-03T18:27:05.199Z,23.92
2018-09-03T18:29:34.904Z,23.86
2018-09-03T18:32:05.255Z,23.81
2018-09-03T18:34:35.376Z,23.77
2018-09-03T18:37:05.392Z,23.70
2018-09-03T18:39:35.461Z,23.62
2018-09-03T18:42:05.270Z,23.54
2018-09-03T18:44:35.048Z,23.48
2018-09-03T18:47:04.859Z,23.44
2018-09-03T18:49:34.625Z,23.39
2018-09-03T18:52:04.471Z,23.33
2018-09-03T18:54:34.275Z,23.27
2018-09-03T18:57:04.078Z,23.20
2018-09-03T18:59:33.921Z,23.15
2018-09-03T19:02:03.840Z,23.12
2018-09-03T19:04:33.555Z,23.10
2018-09-03T19:07:03.297Z,23.07
2018-09-03T19:09:33.150Z,23.04
2018-09-03T19:12:03.238Z,22.98
2018-09-03T19:14:32.972Z,22.91
2018-09-03T19:17:02.734Z,22.82
2018-09-03T19:19:32.551Z,22.77
2018-09-03T19:22:02.525Z,22.71
2018-09-03T19:24:32.262Z,22.65
2018-09-03T19:27:02.208Z,22.63
2018-09-03T19:29:32.011Z,22.56
2018-09-03T19:32:02.029Z,22.50
2018-09-03T19:34:31.849Z,22.47
2018-09-03T19:37:02.013Z,22.41
2018-09-03T19:39:31.882Z,22.37
2018-09-03T19:42:01.592Z,22.31
2018-09-03T19:44:31.443Z,22.26
2018-09-03T19:47:01.514Z,22.19
2018-09-03T19:49:31.413Z,22.13
2018-09-03T19:52:01.257Z,22.10
2018-09-03T19:54:30.988Z,22.07
2018-09-03T19:57:00.686Z,22.04
2018-09-03T19:59:30.482Z,22.00
2018-09-03T20:02:00.295Z,21.96
2018-09-03T20:04:30.070Z,21.93
2018-09-03T20:06:59.758Z,21.88
2018-09-03T20:09:29.668Z,21.85
2018-09-03T20:11:59.494Z,21.81
2018-09-03T20:14:29.423Z,21.78
2018-09-03T20:16:59.249Z,21.74
2018-09-03T20:19:29.195Z,21.69
2018-09-03T20:21:58.926Z,21.62
2018-09-03T20:24:28.976Z,21.58
2018-09-03T20:26:58.673Z,21.55
2018-09-03T20:29:28.446Z,21.52
2018-09-03T20:31:58.376Z,21.49
2018-09-03T20:34:28.198Z,21.44
2018-09-03T20:36:57.952Z,21.41
2018-09-03T20:39:27.863Z,21.38
2018-09-03T20:41:57.618Z,21.33
2018-09-03T20:44:27.447Z,21.27
2018-09-03T20:46:57.683Z,21.22
2018-09-03T20:49:27.921Z,21.16
2018-09-03T20:51:57.753Z,21.15
2018-09-03T20:54:27.622Z,21.13
2018-09-03T20:56:57.350Z,21.08
2018-09-03T20:59:27.296Z,21.03
2018-09-03T21:01:57.039Z,21.02
2018-09-03T21:04:26.765Z,20.98
2018-09-03T21:06:56.581Z,20.93
2018-09-03T21:09:26.370Z,20.92
2018-09-03T21:11:56.101Z,20.90
2018-09-03T21:14:25.893Z,20.85
2018-09-03T21:16:55.729Z,20.81
2018-09-03T21:19:25.649Z,20.75
2018-09-03T21:21:55.540Z,20.70
2018-09-03T21:24:25.246Z,20.66
2018-09-03T21:26:54.961Z,20.60
2018-09-03T21:29:24.973Z,20.56
2018-09-03T21:31:55.394Z,20.53
2018-09-03T21:34:25.110Z,20.50
2018-09-03T21:36:54.831Z,20.48
2018-09-03T21:39:25.018Z,20.43
2018-09-03T21:41:54.737Z,20.37
2018-09-03T21:44:24.506Z,20.33
2018-09-03T21:46:54.642Z,20.31
2018-09-03T21:49:24.398Z,20.28
2018-09-03T21:51:54.189Z,20.26
2018-09-03T21:54:24.005Z,20.23
2018-09-03T21:56:53.825Z,20.19
2018-09-03T21:59:23.549Z,20.14
2018-09-03T22:01:54.194Z,20.11
2018-09-03T22:04:24.006Z,20.09
2018-09-03T22:06:53.910Z,20.06
2018-09-03T22:09:23.756Z,20.03
2018-09-03T22:11:53.626Z,19.99
2018-09-03T22:14:23.396Z,19.95
2018-09-03T22:16:53.341Z,19.93
2018-09-03T22:19:23.180Z,19.89
2018-09-03T22:21:53.029Z,19.87
2018-09-03T22:24:22.989Z,19.84
2018-09-03T22:26:52.961Z,19.81
2018-09-03T22:29:22.742Z,19.77
2018-09-03T22:31:52.485Z,19.73
2018-09-03T22:34:22.211Z,19.66
2018-09-03T22:36:51.947Z,19.62
2018-09-03T22:39:21.762Z,19.58
2018-09-03T22:41:51.545Z,19.56
2018-09-03T22:44:21.484Z,19.53
2018-09-03T22:46:51.249Z,19.50
2018-09-03T22:49:20.970Z,19.48
2018-09-03T22:51:50.725Z,19.47
2018-09-03T22:54:20.518Z,19.45
2018-09-03T22:56:50.372Z,19.43
2018-09-03T22:59:20.151Z,19.42
2018-09-03T23:01:49.911Z,19.38
2018-09-03T23:04:19.642Z,19.35
2018-09-03T23:06:49.443Z,19.33
2018-09-03T23:09:19.213Z,19.34
2018-09-03T23:11:48.937Z,19.31
2018-09-03T23:14:18.718Z,19.30
2018-09-03T23:16:48.562Z,19.28
2018-09-03T23:19:18.299Z,19.26
2018-09-03T23:21:48.196Z,19.26
2018-09-03T23:24:18.525Z,19.25
2018-09-03T23:26:48.246Z,19.24
2018-09-03T23:29:18.066Z,19.24
2018-09-03T23:31:47.797Z,19.22
2018-09-03T23:34:17.614Z,19.18
2018-09-03T23:36:47.534Z,19.16
2018-09-03T23:39:17.341Z,19.14
2018-09-03T23:41:47.033Z,19.09
2018-09-03T23:44:16.866Z,19.06
2018-09-03T23:46:46.616Z,19.02
2018-09-03T23:49:16.306Z,18.99
2018-09-03T23:51:46.155Z,18.96
2018-09-03T23:54:16.408Z,18.93
2018-09-03T23:56:46.239Z,18.92
2018-09-03T23:59:16.197Z,18.89
